Altoona, AL (35952)

3:39 PM CDT on July 29, 2016 (GMT -0500)
Straight Mountain | | Change Station

Elev 1095 ft 33.92 °N, 86.42 °W | Updated 21 seconds ago

Scattered Clouds
Scattered Clouds
86.5 °F
Feels Like 96 °F
N
0.0
Wind Variable Wind from South
Gusts 0.0 mph

Today
High -- | Low -- °F
--% Chance of Precip.
Yesterday
High -- | Low -- °F
Precip. -- in
Pressure 30.02 in
Visibility 10.0 miles
Clouds Few 4500 ft
Scattered Clouds 9000 ft
Heat Index 96 °F
Dew Point 75 °F
Humidity 69%
Rainfall 0.00 in
Snow Depth Not available.
5:54 AM 7:48 PM
Waning Crescent, 19% visible
METAR KGAD 291956Z AUTO 26010KT 10SM FEW045 SCT090 31/22 A2999 RMK AO2 SLP164 T03060222
Pressure 30.02 in
Visibility 10.0 miles
Clouds Few 4500 ft
Scattered Clouds 9000 ft
Heat Index 96 °F
Dew Point 75 °F
Humidity 69%
Rainfall 0.00 in
Snow Depth Not available.
5:54 AM 7:48 PM
Waning Crescent, 19% visible
METAR KGAD 291956Z AUTO 26010KT 10SM FEW045 SCT090 31/22 A2999 RMK AO2 SLP164 T03060222

10-Day Weather Forecast

Almanac

Astronomy

Jul. 29, 2016 Rise Set
Actual Time
Civil Twilight
Nautical Twilight
Astronomical Twilight
Moon
Length of Visible Light
Length of Day
Tomorrow will be .
, % of the Moon is Illuminated

Today's Extremes

State Highs State Lows

Community

WunderPhotos

Upload Photos

1,928,407 photos uploaded!

WunderBlog® & News

Nearby

Air Quality

  Air Quality AQ Index Pollutant
Not available.

Snow Depth

Station Depth Elevation

Earthquake Activity

City Distance Mag. Time & Date
Minimum magnitude displayed is 2.5.

Coastal Water Temperatures

Place Temperature

Stations

Nearby Weather Stations

Station Location Temp. Windchill Dew Point Humidity Wind Precip. Elev Updated Type
                   

Watches & Warnings

There are currently no watches in effect.